createdAt,value
2023-02-28T00:01:25.866Z,103176.47
2023-02-28T00:03:52.900Z,103206.44
2023-02-28T00:06:21.067Z,103219.44
2023-02-28T00:08:47.830Z,103235.13
2023-02-28T00:11:16.410Z,103201.88
2023-02-28T00:13:47.635Z,103242.06
2023-02-28T00:16:20.502Z,103240.31
2023-02-28T00:18:48.684Z,103205.31
2023-02-28T00:21:16.422Z,103186.88
2023-02-28T00:23:43.439Z,103182.44
2023-02-28T00:26:10.169Z,103185.22
2023-02-28T00:28:36.868Z,103204.44
2023-02-28T00:31:03.909Z,103214.25
2023-02-28T00:33:30.758Z,103209.78
2023-02-28T00:36:08.749Z,103192.84
2023-02-28T00:38:35.492Z,103231.47
2023-02-28T00:41:05.798Z,103233.72
2023-02-28T00:43:37.787Z,103188.09
2023-02-28T00:46:05.814Z,103204.84
2023-02-28T00:48:33.419Z,103174.03
2023-02-28T00:51:00.567Z,103221.59
2023-02-28T00:53:27.317Z,103212.78
2023-02-28T00:55:54.020Z,103200.66
2023-02-28T00:58:20.745Z,103206.50
2023-02-28T01:00:50.425Z,103192.56
2023-02-28T01:03:18.503Z,103202.00
2023-02-28T01:05:45.670Z,103229.31
2023-02-28T01:08:13.216Z,103176.69
2023-02-28T01:10:39.921Z,103213.94
2023-02-28T01:13:06.750Z,103204.72
2023-02-28T01:15:34.065Z,103242.34
2023-02-28T01:18:00.798Z,103245.69
2023-02-28T01:20:27.506Z,103214.19
2023-02-28T01:22:54.188Z,103199.19
2023-02-28T01:25:20.916Z,103180.34
2023-02-28T01:27:47.577Z,103198.88
2023-02-28T01:30:14.439Z,103194.34
2023-02-28T01:32:41.134Z,103196.22
2023-02-28T01:35:08.055Z,103210.94
2023-02-28T01:37:34.720Z,103217.38
2023-02-28T01:40:01.409Z,103181.16
2023-02-28T01:42:28.144Z,103222.28
2023-02-28T01:44:56.847Z,103234.63
2023-02-28T01:47:26.843Z,103233.94
2023-02-28T01:49:53.977Z,103202.00
2023-02-28T01:52:21.206Z,103227.53
2023-02-28T01:54:53.191Z,103229.09
2023-02-28T01:57:25.189Z,103239.63
2023-02-28T02:00:00.898Z,103241.44
2023-02-28T02:02:30.023Z,103229.94
2023-02-28T02:05:15.156Z,103257.97
2023-02-28T02:07:46.448Z,103205.22
2023-02-28T02:10:19.224Z,103262.53
2023-02-28T02:13:18.319Z,103253.56
2023-02-28T02:15:50.871Z,103253.59
2023-02-28T02:18:55.951Z,103258.09
2023-02-28T02:21:41.370Z,103258.84
2023-02-28T02:24:50.518Z,103255.41
2023-02-28T02:27:23.577Z,103252.53
2023-02-28T02:30:08.291Z,103254.81
2023-02-28T02:33:12.098Z,103261.59
2023-02-28T02:35:53.520Z,103205.06
2023-02-28T02:38:42.565Z,103240.91
2023-02-28T02:41:34.850Z,103258.69
2023-02-28T02:44:15.294Z,103263.09
2023-02-28T02:46:46.381Z,103203.47
2023-02-28T02:49:37.444Z,103250.78
2023-02-28T02:52:09.293Z,103231.34
2023-02-28T02:54:43.792Z,103240.97
2023-02-28T02:57:24.481Z,103219.84
2023-02-28T02:59:53.809Z,103222.34
2023-02-28T03:02:22.830Z,103199.75
2023-02-28T03:05:02.333Z,103228.94
2023-02-28T03:07:29.526Z,103228.88
2023-02-28T03:09:57.897Z,103235.59
2023-02-28T03:12:57.240Z,103218.81
2023-02-28T03:15:42.228Z,103239.22
2023-02-28T03:18:26.636Z,103250.59
2023-02-28T03:21:05.360Z,103228.66
2023-02-28T03:23:52.751Z,103238.63
2023-02-28T03:26:29.126Z,103193.78
2023-02-28T03:29:04.889Z,103244.69
2023-02-28T03:31:38.745Z,103198.09
2023-02-28T03:34:30.694Z,103176.00
2023-02-28T03:37:03.178Z,103234.72
2023-02-28T03:39:44.015Z,103266.78
2023-02-28T03:42:15.385Z,103209.69
2023-02-28T03:45:11.807Z,103261.66
2023-02-28T03:48:07.512Z,103262.56
2023-02-28T03:50:40.701Z,103243.75
2023-02-28T03:53:17.559Z,103252.75
2023-02-28T03:55:49.114Z,103251.34
2023-02-28T03:58:28.154Z,103264.72
2023-02-28T04:01:09.331Z,103263.72
2023-02-28T04:03:40.500Z,103251.44
2023-02-28T04:06:13.873Z,103232.72
2023-02-28T04:08:40.896Z,103228.13
2023-02-28T04:11:46.818Z,103260.59
2023-02-28T04:14:13.696Z,103214.06
2023-02-28T04:16:42.517Z,103260.69
2023-02-28T04:19:12.059Z,103194.78
2023-02-28T04:21:43.766Z,103180.81
2023-02-28T04:24:15.371Z,103256.22
2023-02-28T04:26:44.932Z,103208.03
2023-02-28T04:29:14.311Z,103227.53
2023-02-28T04:31:41.109Z,103201.66
2023-02-28T04:34:08.050Z,103213.44
2023-02-28T04:36:34.843Z,103233.16
2023-02-28T04:39:01.686Z,103191.06
2023-02-28T04:41:31.048Z,103164.31
2023-02-28T04:43:59.191Z,103198.75
2023-02-28T04:46:25.937Z,103221.72
2023-02-28T04:48:52.612Z,103158.56
2023-02-28T04:51:20.750Z,103231.53
2023-02-28T04:53:48.240Z,103236.53
2023-02-28T04:56:17.490Z,103207.75
2023-02-28T04:58:44.644Z,103213.84
2023-02-28T05:01:21.041Z,103252.28
2023-02-28T05:03:48.755Z,103240.25
2023-02-28T05:06:16.059Z,103206.88
2023-02-28T05:08:42.827Z,103253.16
2023-02-28T05:11:28.017Z,103216.22
2023-02-28T05:13:55.217Z,103188.81
2023-02-28T05:16:22.406Z,103223.41
2023-02-28T05:18:49.251Z,103239.22
2023-02-28T05:21:34.045Z,103210.81
2023-02-28T05:24:09.984Z,103205.44
2023-02-28T05:26:41.864Z,103273.00
2023-02-28T05:29:08.852Z,103209.09
2023-02-28T05:31:36.497Z,103253.97
2023-02-28T05:34:05.364Z,103251.97
2023-02-28T05:36:32.621Z,103236.56
2023-02-28T05:38:59.563Z,103260.16
2023-02-28T05:41:27.559Z,103226.69
2023-02-28T05:43:54.556Z,103238.31
2023-02-28T05:46:21.278Z,103195.00
2023-02-28T05:48:49.194Z,103249.13
2023-02-28T05:51:17.104Z,103257.31
2023-02-28T05:53:44.194Z,103217.59
2023-02-28T05:56:11.024Z,103196.59
2023-02-28T05:58:37.675Z,103176.03
2023-02-28T06:01:33.304Z,103248.13
2023-02-28T06:04:02.217Z,103189.31
2023-02-28T06:06:36.920Z,103186.69
2023-02-28T06:09:05.861Z,103221.84
2023-02-28T06:11:32.848Z,103181.59
2023-02-28T06:14:01.621Z,103228.13
2023-02-28T06:16:29.791Z,103229.09
2023-02-28T06:18:58.644Z,103253.28
2023-02-28T06:21:25.911Z,103205.22
2023-02-28T06:23:52.596Z,103256.88
2023-02-28T06:26:20.129Z,103229.84
2023-02-28T06:28:47.336Z,103276.34
2023-02-28T06:31:17.037Z,103254.50
2023-02-28T06:33:45.145Z,103258.91
2023-02-28T06:36:13.649Z,103279.00
2023-02-28T06:38:42.070Z,103278.03
2023-02-28T06:41:09.726Z,103275.91
2023-02-28T06:43:42.012Z,103222.97
2023-02-28T06:46:11.906Z,103229.63
2023-02-28T06:48:38.711Z,103211.81
2023-02-28T06:51:06.901Z,103286.47
2023-02-28T06:53:34.247Z,103229.31
2023-02-28T06:56:01.063Z,103244.38
2023-02-28T06:58:27.824Z,103213.53
2023-02-28T07:00:54.544Z,103275.88
2023-02-28T07:03:21.652Z,103261.75
2023-02-28T07:05:48.455Z,103220.50
2023-02-28T07:08:15.380Z,103267.22
2023-02-28T07:10:42.453Z,103249.53
2023-02-28T07:13:10.130Z,103275.63
2023-02-28T07:15:41.635Z,103310.78
2023-02-28T07:18:09.715Z,103272.94
2023-02-28T07:20:36.531Z,103240.03
2023-02-28T07:23:03.306Z,103286.56
2023-02-28T07:25:30.540Z,103318.56
2023-02-28T07:27:57.551Z,103271.13
2023-02-28T07:30:24.319Z,103267.75
2023-02-28T07:32:51.195Z,103248.09
2023-02-28T07:35:18.630Z,103317.69
2023-02-28T07:37:45.524Z,103249.13
2023-02-28T07:40:13.128Z,103260.59
2023-02-28T07:42:41.188Z,103322.66
2023-02-28T07:45:09.542Z,103307.03
2023-02-28T07:47:36.210Z,103240.03
2023-02-28T07:50:03.010Z,103284.06
2023-02-28T07:52:29.758Z,103305.66
2023-02-28T07:54:56.436Z,103297.59
2023-02-28T07:57:23.138Z,103281.91
2023-02-28T07:59:49.877Z,103328.19
2023-02-28T08:02:18.060Z,103308.72
2023-02-28T08:04:45.716Z,103293.53
2023-02-28T08:07:14.557Z,103307.44
2023-02-28T08:09:41.775Z,103301.00
2023-02-28T08:12:10.263Z,103325.63
2023-02-28T08:14:37.621Z,103321.16
2023-02-28T08:17:04.997Z,103329.75
2023-02-28T08:19:31.932Z,103272.28
2023-02-28T08:21:59.285Z,103327.63
2023-02-28T08:24:26.069Z,103287.38
2023-02-28T08:26:52.818Z,103294.53
2023-02-28T08:29:19.722Z,103301.22
2023-02-28T08:31:46.601Z,103292.31
2023-02-28T08:34:15.458Z,103312.94
2023-02-28T08:36:43.772Z,103318.19
2023-02-28T08:39:10.746Z,103288.41
2023-02-28T08:41:37.865Z,103310.66
2023-02-28T08:44:04.716Z,103329.50
2023-02-28T08:46:31.571Z,103335.88
2023-02-28T08:49:02.937Z,103331.97
2023-02-28T08:51:30.700Z,103275.53
2023-02-28T08:54:00.908Z,103332.06
2023-02-28T08:56:29.305Z,103364.38
2023-02-28T08:58:58.002Z,103352.03
2023-02-28T09:01:30.271Z,103352.25
2023-02-28T09:03:58.348Z,103289.06
2023-02-28T09:06:27.272Z,103335.25
2023-02-28T09:08:54.983Z,103283.66
2023-02-28T09:11:21.807Z,103296.81
2023-02-28T09:13:48.508Z,103286.06
2023-02-28T09:16:17.273Z,103345.13
2023-02-28T09:18:45.314Z,103343.63
2023-02-28T09:21:17.727Z,103283.94
2023-02-28T09:23:46.215Z,103328.91
2023-02-28T09:26:17.450Z,103358.31
2023-02-28T09:28:44.740Z,103358.69
2023-02-28T09:31:15.402Z,103361.41
2023-02-28T09:33:42.365Z,103326.72
2023-02-28T09:36:09.654Z,103345.72
2023-02-28T09:38:36.912Z,103316.06
2023-02-28T09:41:11.333Z,103375.19
2023-02-28T09:43:42.970Z,103380.66
2023-02-28T09:46:28.343Z,103326.44
2023-02-28T09:48:57.145Z,103379.38
2023-02-28T09:51:45.273Z,103384.09
2023-02-28T09:54:19.945Z,103327.59
2023-02-28T09:56:55.216Z,103360.56
2023-02-28T09:59:59.857Z,103383.31
2023-02-28T10:02:44.880Z,103389.16
2023-02-28T10:05:18.305Z,103318.13
2023-02-28T10:07:56.178Z,103391.16
2023-02-28T10:10:29.630Z,103359.84
2023-02-28T10:12:59.973Z,103358.84
2023-02-28T10:15:30.961Z,103335.00
2023-02-28T10:18:10.199Z,103311.94
2023-02-28T10:20:41.108Z,103326.50
2023-02-28T10:23:22.840Z,103383.16
2023-02-28T10:25:56.184Z,103387.28
2023-02-28T10:28:23.034Z,103353.66
2023-02-28T10:30:52.637Z,103328.50
2023-02-28T10:33:35.354Z,103366.41
2023-02-28T10:36:03.705Z,103381.41
2023-02-28T10:38:36.388Z,103362.50
2023-02-28T10:41:10.881Z,103330.22
2023-02-28T10:43:39.390Z,103351.53
2023-02-28T10:46:12.051Z,103375.31
2023-02-28T10:48:49.538Z,103344.44
2023-02-28T10:51:19.268Z,103377.34
2023-02-28T10:54:06.701Z,103379.22
2023-02-28T10:56:34.582Z,103338.31
2023-02-28T10:59:03.065Z,103381.84
2023-02-28T11:01:40.833Z,103386.03
2023-02-28T11:04:41.154Z,103387.63
2023-02-28T11:07:37.448Z,103386.78
2023-02-28T11:10:10.196Z,103339.97
2023-02-28T11:12:52.198Z,103305.19
2023-02-28T11:15:28.550Z,103304.56
2023-02-28T11:18:23.974Z,103331.13
2023-02-28T11:20:53.383Z,103318.81
2023-02-28T11:23:21.717Z,103343.97
2023-02-28T11:25:55.387Z,103286.28
2023-02-28T11:28:25.050Z,103380.38
2023-02-28T11:31:04.153Z,103370.72
2023-02-28T11:33:33.840Z,103390.19
2023-02-28T11:36:11.041Z,103336.53
2023-02-28T11:38:39.283Z,103348.06
2023-02-28T11:41:21.078Z,103384.31
2023-02-28T11:44:06.024Z,103398.44
2023-02-28T11:46:38.786Z,103388.59
2023-02-28T11:49:32.037Z,103333.78
2023-02-28T11:52:34.058Z,103366.31
2023-02-28T11:55:09.092Z,103388.38
2023-02-28T11:57:57.593Z,103380.75
2023-02-28T12:00:58.878Z,103351.19
2023-02-28T12:03:50.257Z,103333.69
2023-02-28T12:06:16.907Z,103389.66
2023-02-28T12:08:51.166Z,103397.88
2023-02-28T12:11:39.523Z,103380.31
2023-02-28T12:14:28.020Z,103380.50
2023-02-28T12:17:17.630Z,103366.38
2023-02-28T12:19:47.246Z,103371.06
2023-02-28T12:22:19.744Z,103377.13
2023-02-28T12:25:07.844Z,103346.38
2023-02-28T12:27:42.799Z,103308.44
2023-02-28T12:30:30.054Z,103381.44
2023-02-28T12:33:10.347Z,103289.13
2023-02-28T12:36:00.734Z,103366.47
2023-02-28T12:38:49.427Z,103305.00
2023-02-28T12:41:16.080Z,103373.16
2023-02-28T12:43:52.998Z,103354.50
2023-02-28T12:46:30.731Z,103301.75
2023-02-28T12:49:00.012Z,103336.06
2023-02-28T12:51:28.413Z,103313.56
2023-02-28T12:54:18.560Z,103303.84
2023-02-28T12:57:05.117Z,103306.53
2023-02-28T12:59:46.533Z,103364.50
2023-02-28T13:02:13.280Z,103363.00
2023-02-28T13:04:58.582Z,103366.53
2023-02-28T13:07:43.852Z,103362.91
2023-02-28T13:10:11.667Z,103362.00
2023-02-28T13:12:50.014Z,103321.84
2023-02-28T13:15:25.363Z,103302.38
2023-02-28T13:17:54.983Z,103329.28
2023-02-28T13:20:28.120Z,103369.13
2023-02-28T13:22:58.262Z,103326.13
2023-02-28T13:25:43.382Z,103362.63
2023-02-28T13:28:13.098Z,103348.03
2023-02-28T13:30:51.737Z,103357.19
2023-02-28T13:33:28.478Z,103307.19
2023-02-28T13:36:20.045Z,103353.78
2023-02-28T13:38:52.805Z,103337.03
2023-02-28T13:41:35.361Z,103358.13
2023-02-28T13:44:15.688Z,103352.75
2023-02-28T13:46:48.561Z,103350.88
2023-02-28T13:49:24.949Z,103354.97
2023-02-28T13:51:56.149Z,103342.06
2023-02-28T13:54:22.808Z,103343.81
2023-02-28T13:56:58.600Z,103342.06
2023-02-28T13:59:33.438Z,103334.19
2023-02-28T14:02:37.801Z,103342.09
2023-02-28T14:05:16.497Z,103335.53
2023-02-28T14:07:49.802Z,103307.78
2023-02-28T14:10:25.531Z,103341.44
2023-02-28T14:13:02.246Z,103299.44
2023-02-28T14:15:33.475Z,103345.06
2023-02-28T14:18:12.283Z,103315.69
2023-02-28T14:20:41.695Z,103341.91
2023-02-28T14:23:17.416Z,103339.91
2023-02-28T14:25:50.159Z,103334.72
2023-02-28T14:28:37.099Z,103338.47
2023-02-28T14:31:45.224Z,103305.94
2023-02-28T14:34:26.771Z,103320.50
2023-02-28T14:36:55.879Z,103304.31
2023-02-28T14:39:27.070Z,103275.84
2023-02-28T14:41:54.272Z,103249.72
2023-02-28T14:44:26.488Z,103278.63
2023-02-28T14:46:58.981Z,103288.28
2023-02-28T14:49:29.883Z,103283.09
2023-02-28T14:52:10.739Z,103281.22
2023-02-28T14:54:39.428Z,103270.66
2023-02-28T14:57:06.645Z,103305.88
2023-02-28T14:59:35.825Z,103255.91
2023-02-28T15:02:32.241Z,103309.41
2023-02-28T15:05:27.243Z,103300.56
2023-02-28T15:08:16.355Z,103247.38
2023-02-28T15:10:53.636Z,103310.44
2023-02-28T15:13:21.014Z,103285.75
2023-02-28T15:16:01.966Z,103277.28
2023-02-28T15:18:32.440Z,103307.69
2023-02-28T15:21:08.004Z,103272.56
2023-02-28T15:23:37.798Z,103269.94
2023-02-28T15:26:05.969Z,103258.50
2023-02-28T15:28:32.956Z,103235.13
2023-02-28T15:31:03.293Z,103276.50
2023-02-28T15:33:32.679Z,103266.88
2023-02-28T15:36:12.454Z,103272.00
2023-02-28T15:38:39.218Z,103246.97
2023-02-28T15:41:09.193Z,103285.00
2023-02-28T15:43:38.802Z,103252.13
2023-02-28T15:46:10.894Z,103324.75
2023-02-28T15:48:50.592Z,103250.59
2023-02-28T15:51:30.158Z,103219.94
2023-02-28T15:54:03.076Z,103313.69
2023-02-28T15:56:34.535Z,103314.47
2023-02-28T15:59:06.137Z,103334.59
2023-02-28T16:01:38.891Z,103305.03
2023-02-28T16:04:31.492Z,103331.41
2023-02-28T16:07:00.974Z,103328.03
2023-02-28T16:09:28.526Z,103308.72
2023-02-28T16:11:58.194Z,103302.69
2023-02-28T16:14:31.245Z,103285.81
2023-02-28T16:17:05.494Z,103260.47
2023-02-28T16:19:34.610Z,103315.63
2023-02-28T16:22:02.167Z,103255.69
2023-02-28T16:24:28.945Z,103277.63
2023-02-28T16:26:58.164Z,103304.66
2023-02-28T16:29:30.836Z,103288.50
2023-02-28T16:31:58.641Z,103305.59
2023-02-28T16:34:25.777Z,103346.53
2023-02-28T16:36:53.084Z,103270.22
2023-02-28T16:39:21.803Z,103300.25
2023-02-28T16:41:50.101Z,103268.88
2023-02-28T16:44:34.975Z,103344.94
2023-02-28T16:47:03.329Z,103329.97
2023-02-28T16:49:30.601Z,103318.63
2023-02-28T16:51:57.392Z,103267.34
2023-02-28T16:54:24.434Z,103310.44
2023-02-28T16:56:51.341Z,103300.91
2023-02-28T16:59:23.473Z,103338.50
2023-02-28T17:01:50.932Z,103312.63
2023-02-28T17:04:17.713Z,103299.22
2023-02-28T17:06:44.981Z,103350.88
2023-02-28T17:09:19.032Z,103274.38
2023-02-28T17:11:46.162Z,103257.47
2023-02-28T17:14:12.886Z,103279.34
2023-02-28T17:16:41.368Z,103358.34
2023-02-28T17:19:12.412Z,103322.88
2023-02-28T17:21:39.816Z,103294.69
2023-02-28T17:24:06.619Z,103340.09
2023-02-28T17:26:33.688Z,103302.50
2023-02-28T17:29:00.605Z,103317.38
2023-02-28T17:31:28.483Z,103327.81
2023-02-28T17:33:56.230Z,103298.06
2023-02-28T17:36:26.925Z,103347.97
2023-02-28T17:38:56.365Z,103329.28
2023-02-28T17:41:23.390Z,103290.06
2023-02-28T17:43:51.418Z,103317.22
2023-02-28T17:46:23.775Z,103313.53
2023-02-28T17:48:52.342Z,103372.31
2023-02-28T17:51:20.830Z,103327.44
2023-02-28T17:53:47.771Z,103352.25
2023-02-28T17:56:29.270Z,103347.81
2023-02-28T17:58:57.918Z,103384.47
2023-02-28T18:01:28.396Z,103352.97
2023-02-28T18:03:55.892Z,103354.28
2023-02-28T18:06:36.196Z,103339.84
2023-02-28T18:09:03.380Z,103390.50
2023-02-28T18:11:42.518Z,103375.72
2023-02-28T18:14:09.687Z,103337.88
2023-02-28T18:16:36.522Z,103330.00
2023-02-28T18:19:03.500Z,103377.34
2023-02-28T18:21:30.561Z,103341.16
2023-02-28T18:23:57.961Z,103365.81
2023-02-28T18:26:24.938Z,103342.34
2023-02-28T18:28:51.690Z,103368.59
2023-02-28T18:31:20.785Z,103403.66
2023-02-28T18:33:52.254Z,103362.00
2023-02-28T18:36:21.261Z,103395.28
2023-02-28T18:38:48.793Z,103369.00
2023-02-28T18:41:15.603Z,103328.03
2023-02-28T18:43:42.667Z,103329.09
2023-02-28T18:46:12.504Z,103338.09
2023-02-28T18:48:39.972Z,103327.63
2023-02-28T18:51:12.238Z,103375.97
2023-02-28T18:53:40.749Z,103376.09
2023-02-28T18:56:08.878Z,103369.63
2023-02-28T18:58:35.942Z,103390.16
2023-02-28T19:01:05.236Z,103375.06
2023-02-28T19:03:31.966Z,103337.44
2023-02-28T19:06:00.416Z,103353.03
2023-02-28T19:08:27.320Z,103375.59
2023-02-28T19:10:54.121Z,103305.00
2023-02-28T19:13:20.880Z,103345.59
2023-02-28T19:15:48.389Z,103309.09
2023-02-28T19:18:15.501Z,103318.66
2023-02-28T19:20:42.345Z,103301.63
2023-02-28T19:23:11.811Z,103322.66
2023-02-28T19:25:42.573Z,103369.06
2023-02-28T19:28:09.298Z,103335.13
2023-02-28T19:30:36.061Z,103306.91
2023-02-28T19:33:03.226Z,103374.69
2023-02-28T19:35:30.146Z,103330.81
2023-02-28T19:37:58.338Z,103308.09
2023-02-28T19:40:25.676Z,103290.28
2023-02-28T19:42:52.469Z,103317.69
2023-02-28T19:45:19.376Z,103355.25
2023-02-28T19:47:48.318Z,103314.59
2023-02-28T19:50:16.533Z,103364.19
2023-02-28T19:52:45.616Z,103300.91
2023-02-28T19:55:16.048Z,103353.91
2023-02-28T19:57:43.846Z,103331.47
2023-02-28T20:00:14.573Z,103358.81
2023-02-28T20:02:42.710Z,103359.38
2023-02-28T20:05:11.032Z,103364.84
2023-02-28T20:07:38.969Z,103300.75
2023-02-28T20:10:07.684Z,103334.41
2023-02-28T20:12:34.756Z,103262.09
2023-02-28T20:15:01.735Z,103316.53
2023-02-28T20:17:28.928Z,103371.94
2023-02-28T20:20:00.592Z,103301.13
2023-02-28T20:22:31.211Z,103242.00
2023-02-28T20:24:57.919Z,103334.72
2023-02-28T20:27:24.639Z,103303.16
2023-02-28T20:29:51.505Z,103296.38
2023-02-28T20:32:18.278Z,103378.00
2023-02-28T20:34:45.081Z,103288.41
2023-02-28T20:37:13.514Z,103324.44
2023-02-28T20:39:40.361Z,103350.69
2023-02-28T20:42:07.671Z,103334.50
2023-02-28T20:44:35.446Z,103319.53
2023-02-28T20:47:02.216Z,103342.59
2023-02-28T20:49:28.937Z,103385.88
2023-02-28T20:51:55.626Z,103334.75
2023-02-28T20:54:22.584Z,103387.25
2023-02-28T20:56:50.552Z,103334.59
2023-02-28T20:59:17.236Z,103319.97
2023-02-28T21:01:44.059Z,103353.16
2023-02-28T21:04:10.840Z,103358.16
2023-02-28T21:06:43.667Z,103386.34
2023-02-28T21:09:12.239Z,103388.09
2023-02-28T21:11:39.087Z,103344.19
2023-02-28T21:14:17.494Z,103394.75
2023-02-28T21:16:44.958Z,103345.56
2023-02-28T21:19:16.548Z,103400.09
2023-02-28T21:21:44.806Z,103411.13
2023-02-28T21:24:13.449Z,103379.44
2023-02-28T21:26:42.179Z,103401.47
2023-02-28T21:29:08.884Z,103339.94
2023-02-28T21:31:36.112Z,103379.63
2023-02-28T21:34:05.479Z,103363.38
2023-02-28T21:36:37.055Z,103413.81
2023-02-28T21:39:18.084Z,103377.34
2023-02-28T21:41:45.644Z,103408.06
2023-02-28T21:44:19.549Z,103387.25
2023-02-28T21:46:48.989Z,103402.75
2023-02-28T21:49:17.438Z,103401.66
2023-02-28T21:51:44.428Z,103315.06
2023-02-28T21:54:11.932Z,103410.38
2023-02-28T21:56:38.956Z,103409.72
2023-02-28T21:59:07.279Z,103395.38
2023-02-28T22:01:39.172Z,103405.84
2023-02-28T22:04:08.519Z,103406.91
2023-02-28T22:06:40.887Z,103388.44
2023-02-28T22:09:09.112Z,103356.38
2023-02-28T22:11:37.309Z,103416.53
2023-02-28T22:14:04.525Z,103395.59
2023-02-28T22:16:44.258Z,103393.72
2023-02-28T22:19:17.194Z,103384.91
2023-02-28T22:21:45.097Z,103366.38
2023-02-28T22:24:12.350Z,103359.41
2023-02-28T22:26:39.098Z,103340.59
2023-02-28T22:29:05.814Z,103361.97
2023-02-28T22:31:34.941Z,103414.53
2023-02-28T22:34:06.079Z,103399.66
2023-02-28T22:36:33.443Z,103414.22
2023-02-28T22:39:01.135Z,103321.78
2023-02-28T22:41:31.446Z,103363.44
2023-02-28T22:44:02.159Z,103376.03
2023-02-28T22:46:31.618Z,103399.63
2023-02-28T22:49:00.375Z,103398.97
2023-02-28T22:51:28.121Z,103403.09
2023-02-28T22:53:56.268Z,103369.19
2023-02-28T22:56:25.153Z,103404.38
2023-02-28T22:58:56.557Z,103385.56
2023-02-28T23:01:26.296Z,103359.66
2023-02-28T23:03:53.192Z,103361.88
2023-02-28T23:06:29.066Z,103391.03
2023-02-28T23:08:58.933Z,103376.84
2023-02-28T23:11:29.317Z,103379.53
2023-02-28T23:13:59.430Z,103360.94
2023-02-28T23:16:39.964Z,103399.59
2023-02-28T23:19:19.374Z,103403.25
2023-02-28T23:21:47.149Z,103395.78
2023-02-28T23:24:16.219Z,103358.84
2023-02-28T23:26:46.428Z,103410.00
2023-02-28T23:29:15.181Z,103398.53
2023-02-28T23:31:41.966Z,103351.88
2023-02-28T23:34:09.359Z,103358.91
2023-02-28T23:36:37.365Z,103332.78
2023-02-28T23:39:04.150Z,103331.59
2023-02-28T23:41:30.868Z,103268.56
2023-02-28T23:44:00.660Z,103349.25
2023-02-28T23:46:27.755Z,103323.06
2023-02-28T23:48:54.501Z,103376.50
2023-02-28T23:51:22.401Z,103386.06
2023-02-28T23:53:51.437Z,103421.13
2023-02-28T23:56:22.414Z,103421.03
2023-02-28T23:58:50.252Z,103425.59
